Time;durP1;ratioP1;P1;durP2;ratioP2;P2;SDS_P1;SDS_P2;PMS_P1;PMS_P2;Temp;Humidity;BMP_temperature;BMP_pressure;BME280_temperature;BME280_humidity;BME280_pressure;Samples;Min_cycle;Max_cycle;Signal;HPM_P1;HPM_P2
2021/04/10 00:00:10;;;;;;;;;;;;;;;-142.75;62.22;78066.63;5033231;28;20021;-76
2021/04/10 00:02:35;;;;;;;;;;;;;;;-142.75;62.43;78068.59;5031847;28;19968;-76
2021/04/10 00:05:00;;;;;;;;;;;;;;;-142.75;62.33;78074.50;5033128;28;19919;-76
2021/04/10 00:07:25;;;;;;;;;;;;;;;-142.75;62.57;78080.41;5034197;28;19921;-76
2021/04/10 00:09:51;;;;;;;;;;;;;;;-142.75;62.32;78076.47;5037173;28;19935;-75
2021/04/10 00:12:16;;;;;;;;;;;;;;;-142.75;62.15;78072.53;5035812;28;19917;-76
2021/04/10 00:14:41;;;;;;;;;;;;;;;-142.75;62.05;78066.63;5037683;28;19913;-77
2021/04/10 00:17:06;;;;;;;;;;;;;;;-142.75;62.61;78080.41;5036413;28;19913;-77
2021/04/10 00:19:32;;;;;;;;;;;;;;;-142.75;62.43;78082.38;5036247;28;19928;-76
2021/04/10 00:21:57;;;;;;;;;;;;;;;-142.75;62.49;78084.34;5037114;28;19975;-76
2021/04/10 00:24:23;;;;;;;;;;;;;;;-142.75;62.33;78090.25;5032148;28;20349;-76
2021/04/10 00:26:48;;;;;;;;;;;;;;;-142.75;62.47;78086.31;5029211;28;19948;-76
2021/04/10 00:29:13;;;;;;;;;;;;;;;-142.75;62.51;78094.19;5032582;28;19949;-76
2021/04/10 00:31:38;;;;;;;;;;;;;;;-142.75;62.58;78102.06;5033188;28;19917;-76
2021/04/10 00:34:03;;;;;;;;;;;;;;;-142.75;62.51;78094.19;5034046;28;19979;-76
2021/04/10 00:36:29;;;;;;;;;;;;;;;-142.75;62.54;78094.19;5034142;28;20359;-76
2021/04/10 00:38:54;;;;;;;;;;;;;;;-142.75;62.55;78096.16;5033956;28;19917;-76
2021/04/10 00:41:19;;;;;;;;;;;;;;;-142.75;62.71;78111.91;5034030;28;19921;-76
2021/04/10 00:43:45;;;;;;;;;;;;;;;-142.75;63.11;78115.84;5035350;28;20371;-76
2021/04/10 00:46:10;;;;;;;;;;;;;;;-142.75;63.30;78121.75;5036557;28;19913;-76
2021/04/10 00:48:35;;;;;;;;;;;;;;;-142.75;63.39;78115.84;5034564;28;20293;-76
2021/04/10 00:51:01;;;;;;;;;;;;;;;-142.75;63.65;78133.56;5033847;28;19925;-75
2021/04/10 00:53:27;;;;;;;;;;;;;;;-142.75;63.67;78117.81;5036379;28;19999;-76
2021/04/10 00:55:54;;;;;;;;;;;;;;;-142.75;63.27;78113.88;5034726;28;20456;-76
2021/04/10 00:58:20;;;;;;;;;;;;;;;-142.75;63.27;78111.91;5025560;28;20366;-76
2021/04/10 01:00:45;;;;;;;;;;;;;;;-142.75;63.39;78113.88;5031500;28;19917;-75
2021/04/10 01:03:10;;;;;;;;;;;;;;;-142.75;63.14;78123.72;5029798;28;20034;-75
2021/04/10 01:05:36;;;;;;;;;;;;;;;-142.75;63.11;78121.75;5032355;28;19921;-75
2021/04/10 01:08:01;;;;;;;;;;;;;;;-142.75;63.22;78129.63;5035616;28;20298;-74
2021/04/10 01:10:27;;;;;;;;;;;;;;;-142.75;63.08;78121.75;5035970;28;19920;-74
2021/04/10 01:13:11;;;;;;;;;;;;;;;-142.75;62.89;78129.63;5035133;28;19928;-75
2021/04/10 01:15:36;;;;;;;;;;;;;;;-142.75;63.16;78125.69;5035645;28;19916;-75
2021/04/10 01:18:04;;;;;;;;;;;;;;;-142.75;63.10;78137.50;5035020;28;19995;-74
2021/04/10 01:20:42;;;;;;;;;;;;;;;-142.75;63.46;78133.56;5034590;28;19978;-74
2021/04/10 01:23:21;;;;;;;;;;;;;;;-142.75;63.58;78143.41;5035261;28;19913;-75
2021/04/10 01:25:55;;;;;;;;;;;;;;;-142.75;63.48;78143.41;5033536;28;19919;-74
2021/04/10 01:28:40;;;;;;;;;;;;;;;-142.75;63.28;78145.38;5034936;28;19913;-75
2021/04/10 01:31:07;;;;;;;;;;;;;;;-142.75;63.36;78143.41;5032605;28;20367;-74
2021/04/10 01:33:36;;;;;;;;;;;;;;;-142.75;63.44;78141.44;5033605;28;19999;-74
2021/04/10 01:36:02;;;;;;;;;;;;;;;-142.75;63.33;78137.50;5035185;28;19913;-75
2021/04/10 01:38:30;;;;;;;;;;;;;;;-142.75;63.41;78139.47;5034387;28;19913;-75
2021/04/10 01:40:57;;;;;;;;;;;;;;;-142.75;63.33;78137.50;5030203;28;19942;-74
2021/04/10 01:43:22;;;;;;;;;;;;;;;-142.75;63.26;78131.59;5028240;28;19921;-75
2021/04/10 01:45:48;;;;;;;;;;;;;;;-142.75;63.08;78133.56;5033770;28;20304;-75
2021/04/10 01:48:15;;;;;;;;;;;;;;;-142.75;63.04;78129.63;5030173;28;19912;-75
2021/04/10 01:50:41;;;;;;;;;;;;;;;-142.75;63.03;78129.63;5031274;28;19924;-75
2021/04/10 01:53:07;;;;;;;;;;;;;;;-142.75;63.23;78133.56;5031019;28;19913;-75
2021/04/10 01:55:33;;;;;;;;;;;;;;;-142.75;63.26;78129.63;5034709;28;20000;-74
2021/04/10 01:57:59;;;;;;;;;;;;;;;-142.75;62.93;78121.75;5033190;28;19932;-74
2021/04/10 02:00:25;;;;;;;;;;;;;;;-142.75;63.05;78129.63;5032189;28;19921;-75
2021/04/10 02:02:52;;;;;;;;;;;;;;;-142.75;63.04;78133.56;5029239;28;20373;-75
2021/04/10 02:05:18;;;;;;;;;;;;;;;-142.75;63.45;78135.53;5031482;28;19912;-75
2021/04/10 02:07:47;;;;;;;;;;;;;;;-142.75;63.59;78133.56;5032770;28;20400;-75
2021/04/10 02:10:13;;;;;;;;;;;;;;;-142.75;63.48;78137.50;5033960;28;19913;-75
2021/04/10 02:12:41;;;;;;;;;;;;;;;-142.75;63.41;78143.41;5032574;28;19912;-75
2021/04/10 02:15:06;;;;;;;;;;;;;;;-142.75;63.20;78131.59;5033280;28;19935;-74
2021/04/10 02:17:32;;;;;;;;;;;;;;;-142.75;63.34;78145.38;5035011;28;20383;-74
2021/04/10 02:19:57;;;;;;;;;;;;;;;-142.75;63.34;78141.44;5035420;28;19921;-75
2021/04/10 02:22:23;;;;;;;;;;;;;;;-142.75;63.49;78153.25;5035145;28;20010;-74
2021/04/10 02:24:49;;;;;;;;;;;;;;;-142.75;63.38;78149.31;5032387;28;19912;-74
2021/04/10 02:27:14;;;;;;;;;;;;;;;-142.75;63.47;78141.44;5033390;28;20337;-75
2021/04/10 02:29:40;;;;;;;;;;;;;;;-142.75;63.37;78143.41;5033596;28;19913;-75
2021/04/10 02:32:07;;;;;;;;;;;;;;;-142.75;63.70;78147.34;5033696;28;19913;-76
2021/04/10 02:34:36;;;;;;;;;;;;;;;-142.75;63.31;78157.19;5034026;28;20390;-76
2021/04/10 02:37:02;;;;;;;;;;;;;;;-142.75;63.38;78155.22;5030314;28;20404;-74
2021/04/10 02:39:27;;;;;;;;;;;;;;;-142.75;63.74;78157.19;5030835;28;19917;-75
2021/04/10 02:41:55;;;;;;;;;;;;;;;-142.75;63.80;78157.19;5031773;28;19921;-75
2021/04/10 02:44:22;;;;;;;;;;;;;;;-142.75;63.98;78155.22;5031353;28;19995;-74
2021/04/10 02:46:48;;;;;;;;;;;;;;;-142.75;63.88;78167.03;5031780;28;19913;-75
2021/04/10 02:49:21;;;;;;;;;;;;;;;-142.75;63.93;78165.06;5031160;28;19913;-75
2021/04/10 02:51:50;;;;;;;;;;;;;;;-142.75;64.01;78165.06;5031426;28;19940;-75
2021/04/10 02:54:21;;;;;;;;;;;;;;;-142.75;63.76;78159.16;5031295;28;19968;-75
2021/04/10 02:56:49;;;;;;;;;;;;;;;-142.75;63.95;78157.19;5032372;28;19936;-75
2021/04/10 02:59:15;;;;;;;;;;;;;;;-142.75;63.82;78149.31;5027453;28;19925;-75
2021/04/10 03:01:41;;;;;;;;;;;;;;;-142.75;63.65;78137.50;5029196;28;20024;-75
2021/04/10 03:04:06;;;;;;;;;;;;;;;-142.75;63.48;78145.38;5028235;28;19990;-74
2021/04/10 03:06:32;;;;;;;;;;;;;;;-142.75;63.39;78141.44;5040487;28;20031;-75
2021/04/10 03:08:57;;;;;;;;;;;;;;;-142.75;63.73;78141.44;5040163;28;20390;-74
2021/04/10 03:11:23;;;;;;;;;;;;;;;-142.75;63.18;78125.69;5039575;28;19930;-74
2021/04/10 03:13:48;;;;;;;;;;;;;;;-142.75;63.07;78127.66;5040397;28;19920;-75
2021/04/10 03:16:14;;;;;;;;;;;;;;;-142.75;63.26;78135.53;5039844;28;19912;-75
2021/04/10 03:18:42;;;;;;;;;;;;;;;-142.75;63.58;78143.41;5040022;28;20536;-75
2021/04/10 03:21:07;;;;;;;;;;;;;;;-142.75;63.76;78149.31;5038833;28;19945;-75
2021/04/10 03:23:32;;;;;;;;;;;;;;;-142.75;63.64;78145.38;5039970;28;19924;-75
2021/04/10 03:25:59;;;;;;;;;;;;;;;-142.75;63.29;78143.41;5040658;28;19992;-75
2021/04/10 03:28:26;;;;;;;;;;;;;;;-142.75;63.28;78151.28;5040313;28;19920;-74
2021/04/10 03:30:51;;;;;;;;;;;;;;;-142.75;63.37;78157.19;5040531;28;19955;-75
2021/04/10 03:33:16;;;;;;;;;;;;;;;-142.75;63.33;78163.09;5039286;28;19912;-75
2021/04/10 03:35:42;;;;;;;;;;;;;;;-142.75;63.18;78155.22;5039890;28;19913;-74
2021/04/10 03:38:07;;;;;;;;;;;;;;;-142.75;62.95;78151.28;5039153;28;19917;-75
2021/04/10 03:40:32;;;;;;;;;;;;;;;-142.75;63.25;78153.25;5038079;28;19921;-75
2021/04/10 03:42:58;;;;;;;;;;;;;;;-142.75;63.35;78151.28;5039469;28;19947;-75
2021/04/10 03:45:23;;;;;;;;;;;;;;;-142.75;63.14;78143.41;5039847;28;20349;-75
2021/04/10 03:47:49;;;;;;;;;;;;;;;-142.75;63.20;78149.31;5038302;28;20382;-75
2021/04/10 03:50:15;;;;;;;;;;;;;;;-142.75;63.33;78161.13;5038492;28;19913;-76
2021/04/10 03:52:40;;;;;;;;;;;;;;;-142.75;63.50;78163.09;5039009;28;19920;-75
2021/04/10 03:55:06;;;;;;;;;;;;;;;-142.75;63.73;78159.16;5038875;28;20386;-75
2021/04/10 03:57:32;;;;;;;;;;;;;;;-142.75;63.51;78153.25;5031494;28;19913;-74
2021/04/10 03:59:58;;;;;;;;;;;;;;;-142.75;63.36;78159.16;5036141;28;19924;-75
2021/04/10 04:02:23;;;;;;;;;;;;;;;-142.75;62.96;78161.13;5033225;28;19917;-75
2021/04/10 04:04:48;;;;;;;;;;;;;;;-142.75;62.92;78163.09;5035746;28;19931;-75
2021/04/10 04:07:13;;;;;;;;;;;;;;;-142.75;63.06;78153.25;5037242;28;19936;-75
2021/04/10 04:09:38;;;;;;;;;;;;;;;-142.75;62.82;78149.31;5039476;28;19919;-75
2021/04/10 04:12:04;;;;;;;;;;;;;;;-142.75;62.88;78159.16;5038141;28;19923;-74
2021/04/10 04:14:30;;;;;;;;;;;;;;;-142.75;62.77;78155.22;5038998;28;20368;-75
2021/04/10 04:16:55;;;;;;;;;;;;;;;-142.75;62.37;78153.25;5036277;28;20015;-75
2021/04/10 04:19:20;;;;;;;;;;;;;;;-142.75;62.24;78151.28;5035620;28;19948;-74
2021/04/10 04:21:46;;;;;;;;;;;;;;;-142.75;62.15;78172.94;5036005;28;20452;-76
2021/04/10 04:24:11;;;;;;;;;;;;;;;-142.75;62.27;78159.16;5036546;28;19920;-75
2021/04/10 04:26:36;;;;;;;;;;;;;;;-142.75;62.23;78178.84;5035987;28;19971;-75
2021/04/10 04:29:01;;;;;;;;;;;;;;;-142.75;61.89;78167.03;5035191;28;19913;-74
2021/04/10 04:31:26;;;;;;;;;;;;;;;-142.75;61.86;78167.03;5034791;28;20010;-75
2021/04/10 04:33:52;;;;;;;;;;;;;;;-142.75;61.52;78178.84;5035445;28;19931;-74
2021/04/10 04:36:17;;;;;;;;;;;;;;;-142.75;61.25;78172.94;5034693;28;19920;-74
2021/04/10 04:38:42;;;;;;;;;;;;;;;-142.75;61.57;78180.81;5035518;28;19921;-75
2021/04/10 04:41:07;;;;;;;;;;;;;;;-142.75;61.58;78184.78;5034098;28;20291;-75
2021/04/10 04:43:33;;;;;;;;;;;;;;;-142.75;61.93;78180.81;5036632;28;19966;-74
2021/04/10 04:45:58;;;;;;;;;;;;;;;-142.75;61.54;78184.78;5035812;28;19919;-74
2021/04/10 04:48:23;;;;;;;;;;;;;;;-142.75;61.85;78192.66;5034885;28;19912;-75
2021/04/10 04:50:48;;;;;;;;;;;;;;;-142.75;61.71;78196.59;5035160;28;19920;-74
2021/04/10 04:53:13;;;;;;;;;;;;;;;-142.75;62.13;78204.47;5033646;28;19913;-75
2021/04/10 04:55:40;;;;;;;;;;;;;;;-142.75;61.99;78206.44;5025199;28;19920;-73
2021/04/10 04:58:05;;;;;;;;;;;;;;;-142.75;62.15;78206.44;5033874;28;19913;-75
2021/04/10 05:00:30;;;;;;;;;;;;;;;-142.75;62.59;78200.53;5032692;28;19923;-74
2021/04/10 05:02:55;;;;;;;;;;;;;;;-142.75;62.35;78204.47;5034584;28;19964;-74
2021/04/10 05:05:20;;;;;;;;;;;;;;;-142.75;62.53;78212.34;5032918;28;20425;-74
2021/04/10 05:07:46;;;;;;;;;;;;;;;-142.75;62.37;78208.41;5032379;28;19913;-75
2021/04/10 05:10:11;;;;;;;;;;;;;;;-142.75;62.58;78218.25;5034844;28;19963;-74
2021/04/10 05:12:36;;;;;;;;;;;;;;;-142.75;62.45;78220.22;5063620;22;19959;-73
2021/04/10 05:15:02;;;;;;;;;;;;;;;-142.75;62.80;78220.22;5087873;28;19924;-72
2021/04/10 05:17:27;;;;;;;;;;;;;;;-142.75;62.71;78220.22;5106072;28;19958;-72
2021/04/10 05:19:52;;;;;;;;;;;;;;;-142.75;62.70;78220.22;5095396;28;20002;-72
2021/04/10 05:22:18;;;;;;;;;;;;;;;-142.75;63.01;78228.09;5086494;28;19911;-72
2021/04/10 05:24:43;;;;;;;;;;;;;;;-142.75;63.17;78226.13;5107901;28;19950;-73
2021/04/10 05:27:08;;;;;;;;;;;;;;;-142.75;63.21;78216.28;5107707;28;19923;-73
2021/04/10 05:29:33;;;;;;;;;;;;;;;-142.75;62.83;78224.16;5108460;28;19911;-72
2021/04/10 05:31:59;;;;;;;;;;;;;;;-142.75;62.83;78216.28;5106875;28;19920;-73
2021/04/10 05:34:25;;;;;;;;;;;;;;;-142.75;63.03;78218.25;5109618;28;20433;-72
2021/04/10 05:36:50;;;;;;;;;;;;;;;-142.75;63.04;78218.25;5109345;28;19948;-72
2021/04/10 05:39:15;;;;;;;;;;;;;;;-142.75;62.98;78216.28;5088849;28;19940;-73
2021/04/10 05:41:40;;;;;;;;;;;;;;;-142.75;63.08;78218.25;5110153;28;19915;-72
2021/04/10 05:44:05;;;;;;;;;;;;;;;-142.75;62.96;78214.31;5112702;28;20389;-72
2021/04/10 05:46:31;;;;;;;;;;;;;;;-142.75;63.08;78216.28;5112874;28;19912;-72
2021/04/10 05:48:56;;;;;;;;;;;;;;;-142.75;62.74;78216.28;5094180;28;19955;-71
2021/04/10 05:51:21;;;;;;;;;;;;;;;-142.75;62.96;78204.47;5108968;28;20369;-72
2021/04/10 05:53:46;;;;;;;;;;;;;;;-142.75;62.69;78202.50;5093234;28;20398;-74
2021/04/10 05:56:12;;;;;;;;;;;;;;;-142.75;63.12;78204.47;5110212;28;19977;-73
2021/04/10 05:58:37;;;;;;;;;;;;;;;-142.75;62.30;78190.69;5110867;28;19919;-72
2021/04/10 06:01:03;;;;;;;;;;;;;;;-142.75;62.43;78194.63;5089234;28;19911;-73
2021/04/10 06:03:28;;;;;;;;;;;;;;;-142.75;62.25;78200.53;5088689;28;19919;-72
2021/04/10 06:05:54;;;;;;;;;;;;;;;-142.75;62.18;78190.69;5108878;28;19972;-72
2021/04/10 06:08:19;;;;;;;;;;;;;;;-142.75;61.94;78182.81;5103561;28;19965;-72
2021/04/10 06:10:44;;;;;;;;;;;;;;;-142.75;61.92;78190.69;5091872;28;19920;-72
2021/04/10 06:13:09;;;;;;;;;;;;;;;-142.75;61.50;78198.56;5088030;28;20293;-72
2021/04/10 06:15:34;;;;;;;;;;;;;;;-142.75;61.80;78190.69;5100666;28;19954;-71
2021/04/10 06:18:00;;;;;;;;;;;;;;;-142.75;61.12;78184.78;5106550;28;19913;-70
2021/04/10 06:20:25;;;;;;;;;;;;;;;-142.75;61.24;78176.88;5110763;28;19954;-71
2021/04/10 06:22:50;;;;;;;;;;;;;;;-142.75;61.81;78167.03;5110016;28;19934;-72
2021/04/10 06:25:15;;;;;;;;;;;;;;;-142.75;61.51;78170.97;5091796;28;19950;-72
2021/04/10 06:27:41;;;;;;;;;;;;;;;-142.75;61.46;78161.13;5112101;28;20377;-72
2021/04/10 06:30:07;;;;;;;;;;;;;;;-142.75;61.47;78153.25;5112024;28;20424;-71
2021/04/10 06:32:32;;;;;;;;;;;;;;;-142.75;60.78;78151.28;5109017;28;19920;-72
2021/04/10 06:34:57;;;;;;;;;;;;;;;-142.75;61.08;78157.19;5111604;28;19965;-72
2021/04/10 06:37:23;;;;;;;;;;;;;;;-142.75;61.08;78143.41;5111358;28;19919;-72
2021/04/10 06:39:49;;;;;;;;;;;;;;;-142.75;60.94;78129.63;5111375;28;20392;-71
2021/04/10 06:42:14;;;;;;;;;;;;;;;-142.75;61.15;78131.59;5111487;28;20327;-69
2021/04/10 06:44:39;;;;;;;;;;;;;;;-142.75;61.34;78113.88;5109235;28;19911;-71
2021/04/10 06:47:05;;;;;;;;;;;;;;;-142.75;61.02;78121.75;5106452;28;19912;-71
2021/04/10 06:49:31;;;;;;;;;;;;;;;-142.75;60.34;78113.88;5109027;28;20369;-71
2021/04/10 06:51:57;;;;;;;;;;;;;;;-142.75;60.66;78098.13;5109967;28;19911;-71
2021/04/10 06:54:24;;;;;;;;;;;;;;;-142.75;60.53;78086.31;5103353;28;19927;-71
2021/04/10 06:56:56;;;;;;;;;;;;;;;-142.75;60.31;78076.47;5099566;28;19912;-72
2021/04/10 06:59:33;;;;;;;;;;;;;;;-142.75;59.32;78046.91;5081034;28;19974;-71
2021/04/10 07:01:58;;;;;;;;;;;;;;;-142.75;59.36;78039.03;5102518;28;19912;-71
2021/04/10 07:04:24;;;;;;;;;;;;;;;-142.75;59.11;78021.31;5106130;28;19923;-71
2021/04/10 07:06:50;;;;;;;;;;;;;;;-142.75;59.24;78031.16;5091174;28;20430;-71
2021/04/10 07:09:16;;;;;;;;;;;;;;;-142.75;59.22;78050.84;5087861;28;19915;-70
2021/04/10 07:11:41;;;;;;;;;;;;;;;-142.75;59.36;78062.69;5094358;28;19923;-72
2021/04/10 07:14:06;;;;;;;;;;;;;;;-142.75;59.11;78086.31;5084733;28;19917;-71
2021/04/10 07:16:38;;;;;;;;;;;;;;;-142.75;59.18;78094.19;5100812;28;20380;-69
2021/04/10 07:19:10;;;;;;;;;;;;;;;-142.75;60.16;78102.06;5085532;28;19941;-69
2021/04/10 07:21:36;;;;;;;;;;;;;;;-142.75;59.90;78086.31;5089659;28;19915;-71
2021/04/10 07:24:01;;;;;;;;;;;;;;;-142.75;59.88;78066.63;5081180;28;20007;-71
2021/04/10 07:26:46;;;;;;;;;;;;;;;-142.75;59.99;78044.94;5090550;28;19941;-73
2021/04/10 07:29:30;;;;;;;;;;;;;;;-142.75;58.54;78039.03;5109394;28;19912;-71
2021/04/10 07:31:55;;;;;;;;;;;;;;;-142.75;59.58;78035.09;5108608;28;20010;-70
2021/04/10 07:34:21;;;;;;;;;;;;;;;-142.75;58.76;78033.13;5085590;28;20004;-72
2021/04/10 07:36:59;;;;;;;;;;;;;;;-142.75;58.51;78027.22;5098919;28;20266;-73
2021/04/10 07:39:25;;;;;;;;;;;;;;;-142.75;59.03;78019.34;5075948;28;19916;-72
2021/04/10 07:41:57;;;;;;;;;;;;;;;-142.75;58.16;77999.66;5085082;28;19911;-75
2021/04/10 07:44:34;;;;;;;;;;;;;;;-142.75;58.40;78007.53;5099194;28;19919;-71
2021/04/10 07:47:03;;;;;;;;;;;;;;;-142.75;57.93;78003.59;5092697;28;19918;-71
2021/04/10 07:49:29;;;;;;;;;;;;;;;-142.75;58.13;77997.69;5103155;28;19916;-71
2021/04/10 07:51:55;;;;;;;;;;;;;;;-142.75;57.82;77978.00;5107987;28;19934;-72
2021/04/10 07:54:25;;;;;;;;;;;;;;;-142.75;57.57;77983.91;5099409;28;19947;-70
2021/04/10 07:57:10;;;;;;;;;;;;;;;-142.75;57.37;77979.97;5088209;28;19919;-72
2021/04/10 07:59:44;;;;;;;;;;;;;;;-142.75;57.62;77978.00;5111790;28;19945;-72
2021/04/10 08:02:10;;;;;;;;;;;;;;;-142.75;57.37;77972.09;5095328;28;19957;-72
2021/04/10 08:04:36;;;;;;;;;;;;;;;-142.75;56.71;77968.16;5095451;28;19915;-72
2021/04/10 08:07:02;;;;;;;;;;;;;;;-142.75;57.34;77962.25;5107204;28;19912;-72
2021/04/10 08:09:34;;;;;;;;;;;;;;;-142.75;57.46;77960.28;5080198;28;19918;-72
2021/04/10 08:12:00;;;;;;;;;;;;;;;-142.75;56.92;77958.31;5110255;28;19915;-71
2021/04/10 08:14:37;;;;;;;;;;;;;;;-142.75;57.26;77948.47;5109935;28;19951;-71
2021/04/10 08:17:02;;;;;;;;;;;;;;;-142.75;56.46;77940.59;5084410;28;20339;-71
2021/04/10 08:19:28;;;;;;;;;;;;;;;-142.75;56.31;77948.47;5094924;28;19973;-72
2021/04/10 08:21:54;;;;;;;;;;;;;;;-142.75;56.74;77930.75;5109883;28;19912;-72
2021/04/10 08:24:19;;;;;;;;;;;;;;;-142.75;56.43;77936.66;5110693;28;19919;-72
2021/04/10 08:26:45;;;;;;;;;;;;;;;-142.75;56.51;77940.59;5113394;28;19916;-71
2021/04/10 08:29:10;;;;;;;;;;;;;;;-142.75;56.95;77936.66;5103358;28;20010;-71
2021/04/10 08:31:35;;;;;;;;;;;;;;;-142.75;55.41;77944.53;5109266;28;19954;-72
2021/04/10 08:34:01;;;;;;;;;;;;;;;-142.75;55.87;77950.44;5111801;28;19922;-72
2021/04/10 08:36:26;;;;;;;;;;;;;;;-142.75;56.45;77940.59;5092772;28;20357;-71
2021/04/10 08:38:51;;;;;;;;;;;;;;;-142.75;55.13;77942.56;5113081;28;19912;-72
2021/04/10 08:41:16;;;;;;;;;;;;;;;-142.75;56.15;77930.75;5112906;28;19912;-71
2021/04/10 08:43:46;;;;;;;;;;;;;;;-142.75;55.42;77932.72;5091834;28;19912;-72
2021/04/10 08:46:13;;;;;;;;;;;;;;;-142.75;54.71;77946.50;5088215;28;19923;-72
2021/04/10 08:48:39;;;;;;;;;;;;;;;-142.75;54.73;77942.56;5104041;28;19964;-72
2021/04/10 08:51:05;;;;;;;;;;;;;;;-142.75;54.01;77924.84;5093932;28;20440;-72
2021/04/10 08:53:32;;;;;;;;;;;;;;;-142.75;54.75;77918.94;5106651;28;19993;-72
2021/04/10 08:55:58;;;;;;;;;;;;;;;-142.75;54.41;77913.03;5111424;28;20372;-72
2021/04/10 08:58:27;;;;;;;;;;;;;;;-142.75;53.78;77932.72;5091599;28;19951;-73
2021/04/10 09:00:57;;;;;;;;;;;;;;;-142.75;54.34;77926.81;5106086;28;20006;-71
2021/04/10 09:03:42;;;;;;;;;;;;;;;-142.75;54.18;77926.81;5108897;28;19949;-72
2021/04/10 09:06:07;;;;;;;;;;;;;;;-142.75;54.18;77920.91;5090839;28;20370;-72
2021/04/10 09:08:32;;;;;;;;;;;;;;;-142.75;54.34;77897.25;5101413;28;20014;-72
2021/04/10 09:10:59;;;;;;;;;;;;;;;-142.75;54.66;77877.56;5109586;28;19911;-72
2021/04/10 09:13:25;;;;;;;;;;;;;;;-142.75;53.57;77889.38;5110048;28;20369;-72
2021/04/10 09:16:10;;;;;;;;;;;;;;;-142.75;52.82;77897.25;5112175;28;19912;-72
2021/04/10 09:18:36;;;;;;;;;;;;;;;-142.75;53.52;77895.28;5103373;28;19916;-72
2021/04/10 09:21:10;;;;;;;;;;;;;;;-142.75;53.14;77916.97;5092887;28;19977;-71
2021/04/10 09:23:36;;;;;;;;;;;;;;;-142.75;54.38;77920.91;5074424;28;20270;-70
2021/04/10 09:26:07;;;;;;;;;;;;;;;-142.75;53.70;77913.03;5095409;28;19995;-71
2021/04/10 09:28:33;;;;;;;;;;;;;;;-142.75;53.41;77883.47;5102674;28;19911;-72
2021/04/10 09:30:58;;;;;;;;;;;;;;;-142.75;53.99;77883.47;5106369;28;19998;-70
2021/04/10 09:33:33;;;;;;;;;;;;;;;-142.75;53.17;77909.06;5102233;28;20352;-71
2021/04/10 09:35:59;;;;;;;;;;;;;;;-142.75;54.08;77901.19;5084048;28;19920;-71
2021/04/10 09:38:43;;;;;;;;;;;;;;;-142.75;52.97;77893.31;5088955;28;19916;-72
2021/04/10 09:41:09;;;;;;;;;;;;;;;-142.75;53.82;77936.66;5091029;28;19927;-71
2021/04/10 09:43:35;;;;;;;;;;;;;;;-142.75;54.41;77948.47;5088692;28;19919;-72
2021/04/10 09:46:00;;;;;;;;;;;;;;;-142.75;54.92;77913.03;5091223;28;19922;-71
2021/04/10 09:48:27;;;;;;;;;;;;;;;-142.75;54.38;77895.28;5092810;28;19921;-70
2021/04/10 09:50:52;;;;;;;;;;;;;;;-142.75;54.19;77873.63;5105219;28;19916;-71
2021/04/10 09:53:22;;;;;;;;;;;;;;;-142.75;54.00;77846.06;5100099;28;19980;-72
2021/04/10 09:55:56;;;;;;;;;;;;;;;-142.75;53.88;77814.56;5101815;28;19957;-71
2021/04/10 09:58:21;;;;;;;;;;;;;;;-142.75;55.41;77806.69;5098800;28;20281;-70
2021/04/10 10:00:48;;;;;;;;;;;;;;;-142.75;55.89;77798.81;5108334;28;19973;-71
2021/04/10 10:03:17;;;;;;;;;;;;;;;-142.75;53.82;77800.78;5108032;28;19957;-71
2021/04/10 10:05:43;;;;;;;;;;;;;;;-142.75;54.60;77775.19;5090930;28;20368;-72
2021/04/10 10:08:13;;;;;;;;;;;;;;;-142.75;54.40;77739.75;5109179;28;20293;-72
2021/04/10 10:10:39;;;;;;;;;;;;;;;-142.75;54.09;77706.25;5090081;28;20526;-71
2021/04/10 10:13:06;;;;;;;;;;;;;;;-142.75;54.78;77698.38;5107897;28;20490;-72
2021/04/10 10:15:31;;;;;;;;;;;;;;;-142.75;53.38;77747.63;5109604;28;19916;-71
2021/04/10 10:17:56;;;;;;;;;;;;;;;-142.75;52.97;77785.03;5110231;28;19976;-72
2021/04/10 10:20:22;;;;;;;;;;;;;;;-142.75;54.58;77867.72;5110252;28;19919;-71
2021/04/10 10:22:47;;;;;;;;;;;;;;;-142.75;56.30;77842.13;5092167;28;19911;-72
2021/04/10 10:25:12;;;;;;;;;;;;;;;-142.75;56.91;77842.13;5110962;28;19915;-69
2021/04/10 10:27:39;;;;;;;;;;;;;;;-142.75;56.61;77826.38;5110151;28;19911;-71
2021/04/10 10:30:18;;;;;;;;;;;;;;;-142.75;55.95;77816.53;5092144;28;19916;-71
2021/04/10 10:32:44;;;;;;;;;;;;;;;-142.75;56.10;77814.56;5107267;28;20041;-70
2021/04/10 10:35:10;;;;;;;;;;;;;;;-142.75;56.77;77818.50;5110254;28;19918;-72
2021/04/10 10:37:35;;;;;;;;;;;;;;;-142.75;57.13;77820.47;5110173;28;19915;-71
2021/04/10 10:40:00;;;;;;;;;;;;;;;-142.75;56.42;77848.03;5110069;28;20300;-71
2021/04/10 10:42:25;;;;;;;;;;;;;;;-142.75;56.51;77850.00;5109940;28;20016;-71
2021/04/10 10:44:51;;;;;;;;;;;;;;;-142.75;57.40;77853.94;5091756;28;19912;-71
2021/04/10 10:47:16;;;;;;;;;;;;;;;-142.75;57.33;77840.16;5110283;28;19911;-71
2021/04/10 10:49:47;;;;;;;;;;;;;;;-142.75;58.30;77812.59;5091816;28;19911;-71
2021/04/10 10:52:17;;;;;;;;;;;;;;;-142.75;57.41;77818.50;5109999;28;19916;-71
2021/04/10 10:54:42;;;;;;;;;;;;;;;-142.75;57.23;77816.53;5110823;28;19911;-71
2021/04/10 10:57:12;;;;;;;;;;;;;;;-142.75;58.11;77810.63;5109986;28;19929;-71
2021/04/10 10:59:37;;;;;;;;;;;;;;;-142.75;57.64;77816.53;5092065;28;20308;-71
2021/04/10 11:02:03;;;;;;;;;;;;;;;-142.75;57.67;77814.56;5090733;28;19915;-71
2021/04/10 11:04:30;;;;;;;;;;;;;;;-142.75;58.26;77804.72;5091657;28;19911;-71
2021/04/10 11:06:57;;;;;;;;;;;;;;;-142.75;57.42;77810.63;5110001;28;20006;-71
2021/04/10 11:09:26;;;;;;;;;;;;;;;-142.75;57.67;77802.75;5109967;28;20371;-72
2021/04/10 11:11:54;;;;;;;;;;;;;;;-142.75;57.48;77810.63;5091315;28;19918;-71
2021/04/10 11:14:21;;;;;;;;;;;;;;;-142.75;57.47;77810.63;5109726;28;20010;-71
2021/04/10 11:16:48;;;;;;;;;;;;;;;-142.75;57.05;77816.53;5109837;28;20383;-72
2021/04/10 11:19:31;;;;;;;;;;;;;;;-142.75;57.98;77796.84;5109726;28;19958;-71
2021/04/10 11:22:00;;;;;;;;;;;;;;;-142.75;57.43;77808.66;5101008;28;19972;-71
2021/04/10 11:24:34;;;;;;;;;;;;;;;-142.75;56.86;77820.47;5095368;28;19998;-72
2021/04/10 11:27:08;;;;;;;;;;;;;;;-142.75;57.41;77808.66;5100588;28;19908;-70
2021/04/10 11:29:34;;;;;;;;;;;;;;;-142.75;57.19;77802.75;5089811;28;19957;-71
2021/04/10 11:32:10;;;;;;;;;;;;;;;-142.75;57.88;77810.63;5113503;28;19922;-72
2021/04/10 11:34:36;;;;;;;;;;;;;;;-142.75;56.68;77814.56;5110842;28;19994;-72
2021/04/10 11:37:02;;;;;;;;;;;;;;;-142.75;57.88;77822.44;5111446;28;20421;-72
2021/04/10 11:39:27;;;;;;;;;;;;;;;-142.75;57.17;77816.53;5112066;28;19918;-73
2021/04/10 11:41:53;;;;;;;;;;;;;;;-142.75;57.51;77846.06;5113766;28;19990;-72
2021/04/10 11:44:19;;;;;;;;;;;;;;;-142.75;57.92;77853.94;5114410;28;19920;-72
2021/04/10 11:46:44;;;;;;;;;;;;;;;-142.75;58.85;77861.81;5096101;28;20026;-72
2021/04/10 11:49:09;;;;;;;;;;;;;;;-142.75;59.10;77853.94;5102023;28;19910;-73
2021/04/10 11:51:35;;;;;;;;;;;;;;;-142.75;58.76;77828.34;5090838;28;20477;-72
2021/04/10 11:54:00;;;;;;;;;;;;;;;-142.75;58.88;77824.41;5092885;28;19918;-72
2021/04/10 11:56:27;;;;;;;;;;;;;;;-142.75;59.00;77828.34;5109959;28;20379;-72
2021/04/10 11:58:59;;;;;;;;;;;;;;;-142.75;60.43;77804.72;5108695;28;19946;-73
2021/04/10 12:01:24;;;;;;;;;;;;;;;-142.75;59.72;77802.75;5100408;28;19907;-71
2021/04/10 12:03:50;;;;;;;;;;;;;;;-142.75;59.69;77810.63;5111080;28;19907;-71
2021/04/10 12:06:35;;;;;;;;;;;;;;;-142.75;59.72;77798.81;5112413;28;20005;-71
2021/04/10 12:09:03;;;;;;;;;;;;;;;-142.75;59.19;77814.56;5113883;28;19908;-72
2021/04/10 12:11:28;;;;;;;;;;;;;;;-142.75;60.97;77810.63;5113321;28;19965;-72
2021/04/10 12:13:53;;;;;;;;;;;;;;;-142.75;60.84;77806.69;5107912;28;19915;-71
2021/04/10 12:16:18;;;;;;;;;;;;;;;-142.75;59.53;77800.78;5109846;28;19946;-74
2021/04/10 12:18:44;;;;;;;;;;;;;;;-142.75;60.01;77806.69;5081259;28;19968;-75
2021/04/10 12:21:09;;;;;;;;;;;;;;;-142.75;60.72;77814.56;5111520;28;20319;-76
2021/04/10 12:23:34;;;;;;;;;;;;;;;-142.75;58.95;77850.00;5094120;28;19923;-74
2021/04/10 12:26:01;;;;;;;;;;;;;;;-142.75;60.51;77861.81;5107638;28;19916;-74